Time;durP1;ratioP1;P1;durP2;ratioP2;P2;SDS_P1;SDS_P2;PMS_P1;PMS_P2;Temp;Humidity;BMP_temperature;BMP_pressure;BME280_temperature;BME280_humidity;BME280_pressure;Samples;Min_cycle;Max_cycle;Signal;HPM_P1;HPM_P2
2023/12/18 00:01:34;;;;;;;0.45;0.45;;;8.20;99.90;;;;;;5062829;28;20048;-88
2023/12/18 00:04:03;;;;;;;3.42;1.27;;;8.20;1.00;;;;;;5045240;28;20045;-88
2023/12/18 00:06:29;;;;;;;0.20;0.20;;;8.20;1.00;;;;;;5062491;28;20057;-88
2023/12/18 00:08:54;;;;;;;1.95;0.77;;;8.20;1.00;;;;;;5062423;28;20060;-88
2023/12/18 00:11:20;;;;;;;0.50;0.45;;;8.30;99.90;;;;;;5062180;28;20057;-88
2023/12/18 00:13:45;;;;;;;2.60;1.23;;;8.30;99.90;;;;;;5062200;28;20475;-88
2023/12/18 00:16:11;;;;;;;1.88;1.50;;;8.20;99.90;;;;;;5062400;28;20498;-87
2023/12/18 00:18:37;;;;;;;1.00;0.63;;;8.30;99.90;;;;;;5062288;28;20454;-88
2023/12/18 00:21:03;;;;;;;1.35;0.75;;;8.20;99.90;;;;;;5062132;28;20096;-88
2023/12/18 00:23:29;;;;;;;2.50;1.73;;;8.20;99.90;;;;;;5062706;28;20049;-88
2023/12/18 00:25:55;;;;;;;0.80;0.80;;;8.30;99.90;;;;;;5062079;28;20371;-88
2023/12/18 00:28:20;;;;;;;0.70;0.52;;;8.30;99.90;;;;;;5074254;28;20074;-88
2023/12/18 00:30:46;;;;;;;0.85;0.20;;;8.20;99.90;;;;;;5061801;28;20070;-88
2023/12/18 00:33:11;;;;;;;0.85;0.80;;;8.20;99.90;;;;;;5062206;28;20490;-88
2023/12/18 00:35:37;;;;;;;0.65;0.60;;;8.20;1.00;;;;;;5062688;28;20041;-88
2023/12/18 00:38:03;;;;;;;0.00;0.00;;;9.00;99.90;;;;;;5061992;28;20068;-88
2023/12/18 00:40:28;;;;;;;11.57;2.17;;;8.30;99.90;;;;;;5061438;28;20102;-88
2023/12/18 00:42:54;;;;;;;7.82;2.35;;;8.20;99.90;;;;;;5054601;28;20045;-88
2023/12/18 00:45:19;;;;;;;1.17;1.08;;;8.20;1.00;;;;;;5081218;28;20498;-87
2023/12/18 00:47:45;;;;;;;1.45;1.35;;;8.20;1.00;;;;;;5081184;28;20043;-88
2023/12/18 00:50:11;;;;;;;1.10;0.65;;;8.20;1.00;;;;;;5056567;28;20439;-88
2023/12/18 00:52:37;;;;;;;0.93;0.85;;;8.20;1.00;;;;;;5043179;28;20045;-88
2023/12/18 00:55:03;;;;;;;1.42;0.80;;;8.20;1.00;;;;;;5073161;28;20087;-88
2023/12/18 00:57:28;;;;;;;2.92;1.73;;;8.20;1.00;;;;;;5055156;28;20087;-88
2023/12/18 00:59:54;;;;;;;0.35;0.35;;;8.20;1.00;;;;;;5043184;28;20426;-88
2023/12/18 01:02:19;;;;;;;3.72;2.30;;;8.10;74.90;;;;;;5061649;28;20040;-88
2023/12/18 01:04:45;;;;;;;6.63;0.73;;;8.10;23.40;;;;;;5043290;28;20040;-88
2023/12/18 01:07:11;;;;;;;0.10;0.10;;;8.20;1.00;;;;;;5061970;28;20037;-88
2023/12/18 01:09:36;;;;;;;2.00;1.85;;;8.20;1.00;;;;;;5060986;28;20056;-88
2023/12/18 01:12:02;;;;;;;5.35;2.63;;;8.20;9.90;;;;;;5061335;28;20445;-88
2023/12/18 01:14:27;;;;;;;0.20;0.20;;;8.30;1.00;;;;;;5061575;28;20037;-88
2023/12/18 01:16:54;;;;;;;1.30;1.20;;;8.20;29.50;;;;;;5061342;28;20116;-88
2023/12/18 01:19:20;;;;;;;2.50;1.70;;;8.20;99.90;;;;;;5061261;28;20068;-88
2023/12/18 01:21:46;;;;;;;2.40;1.73;;;8.20;99.90;;;;;;5061439;28;20044;-88
2023/12/18 01:24:11;;;;;;;0.52;0.50;;;8.20;99.90;;;;;;5060655;28;20438;-87
2023/12/18 01:26:37;;;;;;;0.57;0.57;;;8.20;99.90;;;;;;5061029;28;20041;-88
2023/12/18 01:29:04;;;;;;;2.72;1.02;;;8.30;99.90;;;;;;5060365;28;20033;-88
2023/12/18 01:31:29;;;;;;;5.15;1.35;;;8.20;99.90;;;;;;5060421;28;20078;-88
2023/12/18 01:33:55;;;;;;;6.63;1.23;;;8.20;99.90;;;;;;5042449;28;20041;-88
2023/12/18 01:36:21;;;;;;;0.73;0.73;;;8.20;99.90;;;;;;5060439;28;20037;-87
2023/12/18 01:38:47;;;;;;;4.78;1.15;;;8.30;99.90;;;;;;5060521;28;20045;-88
2023/12/18 01:41:13;;;;;;;1.52;1.05;;;8.30;99.90;;;;;;5060677;28;20550;-88
2023/12/18 01:43:38;;;;;;;3.10;1.45;;;8.30;99.90;;;;;;5042081;28;20053;-87
2023/12/18 01:46:05;;;;;;;0.03;0.03;;;8.20;99.90;;;;;;5060341;28;20037;-88
2023/12/18 01:48:32;;;;;;;0.93;0.63;;;8.30;99.90;;;;;;5060405;28;20562;-88
2023/12/18 01:50:59;;;;;;;0.08;0.08;;;8.30;99.90;;;;;;5044303;28;20091;-89
2023/12/18 01:53:39;;;;;;;1.27;0.82;;;8.20;99.90;;;;;;5060601;28;20379;-88
2023/12/18 01:56:05;;;;;;;1.45;1.35;;;8.20;99.90;;;;;;5060244;28;20112;-88
2023/12/18 01:58:33;;;;;;;0.73;0.73;;;8.30;99.90;;;;;;5041418;28;20044;-88
2023/12/18 02:01:00;;;;;;;0.80;0.47;;;8.30;99.90;;;;;;5059625;28;20052;-88
2023/12/18 02:03:28;;;;;;;0.57;0.52;;;8.30;99.90;;;;;;5059638;28;20045;-88
2023/12/18 02:05:54;;;;;;;0.40;0.40;;;8.30;99.90;;;;;;5041036;28;20100;-88
2023/12/18 02:08:21;;;;;;;1.35;0.63;;;8.30;99.90;;;;;;5059445;28;20120;-88
2023/12/18 02:10:46;;;;;;;1.30;0.22;;;8.30;99.90;;;;;;5070646;28;20517;-88
2023/12/18 02:13:12;;;;;;;0.68;0.63;;;8.30;99.90;;;;;;5080267;28;20044;-88
2023/12/18 02:15:39;;;;;;;1.02;0.82;;;8.30;99.90;;;;;;5064799;28;20041;-88
2023/12/18 02:18:04;;;;;;;0.20;0.20;;;8.30;99.90;;;;;;5060181;28;20049;-89
2023/12/18 02:20:30;;;;;;;0.95;0.95;;;8.20;99.90;;;;;;5060616;28;20457;-87
2023/12/18 02:22:56;;;;;;;0.80;0.30;;;8.20;99.90;;;;;;5042746;28;20051;-88
2023/12/18 02:25:21;;;;;;;0.35;0.35;;;8.40;99.90;;;;;;5060445;28;20052;-88
2023/12/18 02:27:49;;;;;;;0.68;0.68;;;8.20;99.90;;;;;;5052308;28;20049;-88
2023/12/18 02:30:25;;;;;;;0.25;0.25;;;8.20;99.90;;;;;;5070073;28;20033;-88
2023/12/18 02:32:50;;;;;;;;;;;9.60;99.90;;;;;;5060610;28;20513;-88
2023/12/18 02:35:16;;;;;;;0.77;0.57;;;8.30;99.90;;;;;;5060422;28;19921;-88
2023/12/18 02:37:43;;;;;;;0.85;0.77;;;8.30;99.90;;;;;;5060299;28;20453;-89
2023/12/18 02:40:09;;;;;;;0.43;0.43;;;8.20;99.90;;;;;;5060322;28;20052;-88
2023/12/18 02:42:34;;;;;;;0.35;0.35;;;8.20;99.90;;;;;;5026177;28;20045;-88
2023/12/18 02:45:02;;;;;;;0.52;0.52;;;8.20;99.90;;;;;;5060557;28;20094;-88
2023/12/18 02:47:28;;;;;;;0.57;0.45;;;8.30;99.90;;;;;;5059221;28;20045;-88
2023/12/18 02:49:53;;;;;;;5.43;2.17;;;8.20;99.90;;;;;;5057956;28;20041;-88
2023/12/18 02:52:19;;;;;;;1.40;0.75;;;8.10;99.90;;;;;;5058723;28;20037;-87
2023/12/18 02:54:45;;;;;;;0.77;0.77;;;8.20;1.00;;;;;;5058700;28;20040;-88
2023/12/18 02:57:10;;;;;;;0.00;0.00;;;8.20;1.00;;;;;;5060464;28;20045;-87
2023/12/18 02:59:36;;;;;;;3.78;1.85;;;8.10;1.00;;;;;;5062264;28;20073;-89
2023/12/18 03:02:02;;;;;;;1.85;1.40;;;8.10;37.90;;;;;;5076930;28;20037;-88
2023/12/18 03:04:27;;;;;;;0.95;0.73;;;8.20;1.00;;;;;;5062030;28;20064;-88
2023/12/18 03:06:53;;;;;;;0.80;0.80;;;8.20;33.70;;;;;;5062749;28;20048;-88
2023/12/18 03:09:19;;;;;;;2.63;1.98;;;8.20;1.00;;;;;;5062582;28;20053;-88
2023/12/18 03:11:44;;;;;;;4.43;2.65;;;8.20;1.00;;;;;;5062897;28;20044;-88
2023/12/18 03:14:10;;;;;;;2.38;1.52;;;8.20;1.00;;;;;;5062792;28;20037;-88
2023/12/18 03:16:37;;;;;;;1.80;1.13;;;8.20;1.00;;;;;;5062399;28;20044;-88
2023/12/18 03:19:02;;;;;;;0.63;0.63;;;8.10;1.00;;;;;;5062701;28;20072;-88
2023/12/18 03:21:28;;;;;;;1.05;0.95;;;9.40;59.50;;;;;;5044975;28;20037;-88
2023/12/18 03:23:54;;;;;;;3.22;2.25;;;8.10;1.00;;;;;;5045355;28;20049;-88
2023/12/18 03:26:20;;;;;;;1.27;0.75;;;8.20;1.00;;;;;;5062975;28;20094;-88
2023/12/18 03:28:45;;;;;;;33.08;1.85;;;8.20;1.00;;;;;;5045387;28;20065;-88
2023/12/18 03:31:11;;;;;;;2.83;0.73;;;8.20;1.00;;;;;;5071885;28;20044;-88
2023/12/18 03:33:38;;;;;;;1.33;0.77;;;8.30;1.00;;;;;;5064236;28;20040;-88
2023/12/18 03:36:04;;;;;;;1.08;0.98;;;8.20;1.00;;;;;;5043803;28;20036;-88
2023/12/18 03:38:30;;;;;;;0.47;0.47;;;8.20;1.00;;;;;;5061844;28;20076;-88
2023/12/18 03:40:56;;;;;;;6.13;0.90;;;8.80;1.00;;;;;;5061939;28;20037;-88
2023/12/18 03:43:23;;;;;;;3.65;2.38;;;8.10;20.50;;;;;;5061870;28;20033;-88
2023/12/18 03:45:49;;;;;;;28.30;1.67;;;8.20;20.00;;;;;;5061743;28;20099;-88
2023/12/18 03:48:15;;;;;;;2.15;1.42;;;8.20;99.90;;;;;;5062066;28;20041;-88
2023/12/18 03:50:41;;;;;;;0.15;0.15;;;8.20;1.00;;;;;;5062779;28;20134;-88
2023/12/18 03:53:08;;;;;;;1.30;0.95;;;8.30;1.00;;;;;;5061798;28;20141;-88
2023/12/18 03:55:34;;;;;;;0.98;0.85;;;8.30;1.00;;;;;;5062709;28;20049;-88
2023/12/18 03:58:00;;;;;;;1.67;1.30;;;8.30;1.00;;;;;;5063139;28;20045;-88
2023/12/18 04:00:26;;;;;;;0.90;0.90;;;8.20;1.00;;;;;;5062660;28;20041;-88
2023/12/18 04:02:52;;;;;;;1.02;0.77;;;8.30;1.00;;;;;;5044842;28;20036;-88
2023/12/18 04:05:17;;;;;;;0.43;0.43;;;8.30;1.00;;;;;;5062609;28;20550;-87
2023/12/18 04:07:43;;;;;;;10.38;1.25;;;8.30;1.00;;;;;;5028100;28;20107;-88
2023/12/18 04:10:09;;;;;;;0.13;0.13;;;8.30;1.00;;;;;;5061519;28;20049;-88
2023/12/18 04:12:35;;;;;;;2.55;1.20;;;8.30;1.00;;;;;;5044400;28;20045;-88
2023/12/18 04:15:01;;;;;;;3.50;2.03;;;8.30;99.90;;;;;;5062083;28;20048;-88
2023/12/18 04:17:27;;;;;;;3.80;0.75;;;8.30;1.00;;;;;;5062316;28;20037;-88
2023/12/18 04:19:52;;;;;;;3.85;1.98;;;8.40;1.00;;;;;;5044264;28;20037;-88
2023/12/18 04:22:18;;;;;;;2.05;1.08;;;8.40;1.00;;;;;;5062117;28;20053;-88
2023/12/18 04:24:43;;;;;;;2.67;1.55;;;8.60;99.90;;;;;;5061964;28;20422;-88
2023/12/18 04:27:09;;;;;;;0.70;0.55;;;8.40;99.90;;;;;;5061639;28;20033;-88
2023/12/18 04:29:35;;;;;;;2.47;1.55;;;8.40;99.90;;;;;;5044053;28;20041;-88
2023/12/18 04:32:01;;;;;;;0.80;0.63;;;8.40;99.90;;;;;;5061749;28;20041;-88
2023/12/18 04:34:26;;;;;;;3.70;2.70;;;8.40;99.90;;;;;;5042858;28;20115;-87
2023/12/18 04:36:52;;;;;;;0.10;0.10;;;8.40;1.00;;;;;;5074117;28;20048;-88
2023/12/18 04:39:17;;;;;;;10.15;2.17;;;8.30;1.00;;;;;;5081791;28;20072;-88
2023/12/18 04:41:44;;;;;;;0.65;0.40;;;8.30;1.00;;;;;;5063650;28;20085;-88
2023/12/18 04:44:10;;;;;;;1.23;0.82;;;8.30;1.00;;;;;;5081315;28;20116;-88
2023/12/18 04:46:36;;;;;;;0.03;0.03;;;8.30;1.00;;;;;;5049781;28;20045;-88
2023/12/18 04:49:03;;;;;;;0.77;0.77;;;9.00;1.00;;;;;;5043647;28;20051;-88
2023/12/18 04:51:29;;;;;;;1.48;0.73;;;8.40;1.00;;;;;;5061355;28;20094;-88
2023/12/18 04:53:55;;;;;;;3.17;2.70;;;8.40;99.90;;;;;;5061131;28;20044;-88
2023/12/18 04:56:21;;;;;;;0.52;0.47;;;8.40;99.90;;;;;;5061707;28;20114;-88
2023/12/18 04:58:46;;;;;;;1.45;0.85;;;8.40;99.90;;;;;;5061368;28;20041;-87
2023/12/18 05:01:12;;;;;;;3.22;1.55;;;8.40;99.90;;;;;;5061424;28;20052;-88
2023/12/18 05:03:38;;;;;;;0.93;0.80;;;8.40;99.90;;;;;;5061544;28;20041;-88
2023/12/18 05:06:03;;;;;;;2.33;1.40;;;8.40;99.90;;;;;;5061615;28;20045;-87
2023/12/18 05:08:29;;;;;;;7.18;1.58;;;8.40;99.90;;;;;;5043223;28;20113;-88
2023/12/18 05:10:55;;;;;;;2.13;1.25;;;8.30;99.90;;;;;;5061395;28;20063;-88
2023/12/18 05:13:21;;;;;;;3.40;1.50;;;8.30;1.00;;;;;;5060893;28;20041;-88
2023/12/18 05:15:47;;;;;;;0.65;0.65;;;8.30;1.00;;;;;;5060961;28;20541;-88
2023/12/18 05:18:13;;;;;;;1.25;1.08;;;8.30;1.00;;;;;;5060891;28;20040;-88
2023/12/18 05:20:39;;;;;;;0.95;0.90;;;8.30;99.90;;;;;;5042366;28;20375;-87
2023/12/18 05:23:04;;;;;;;2.33;1.40;;;8.30;1.00;;;;;;5060900;28;20135;-88
2023/12/18 05:25:30;;;;;;;0.50;0.40;;;8.20;1.00;;;;;;5060402;28;20041;-88
2023/12/18 05:27:55;;;;;;;2.28;2.00;;;8.20;10.70;;;;;;5041807;28;20044;-88
2023/12/18 05:30:21;;;;;;;0.15;0.08;;;8.20;1.00;;;;;;5064670;28;20094;-88
2023/12/18 05:32:47;;;;;;;0.20;0.20;;;8.20;45.00;;;;;;5079979;28;20111;-88
2023/12/18 05:35:12;;;;;;;0.47;0.47;;;8.20;4.00;;;;;;5059607;28;20071;-88
2023/12/18 05:37:38;;;;;;;3.05;1.35;;;8.30;9.80;;;;;;5041609;28;20080;-88
2023/12/18 05:40:04;;;;;;;0.85;0.63;;;8.30;1.00;;;;;;5041309;28;20060;-88
2023/12/18 05:42:30;;;;;;;10.27;3.38;;;8.30;1.00;;;;;;5042101;28;20049;-88
2023/12/18 05:44:55;;;;;;;1.75;1.42;;;8.30;1.00;;;;;;5059763;28;20122;-87
2023/12/18 05:47:21;;;;;;;2.42;1.10;;;8.30;1.00;;;;;;5058760;28;20043;-88
2023/12/18 05:49:46;;;;;;;4.80;2.45;;;8.40;99.90;;;;;;5059135;28;20421;-88
2023/12/18 05:52:12;;;;;;;2.72;0.70;;;8.40;1.00;;;;;;5041322;28;20045;-88
2023/12/18 05:54:38;;;;;;;2.30;0.45;;;8.40;1.00;;;;;;5058917;28;20041;-88
2023/12/18 05:57:04;;;;;;;2.70;1.02;;;8.40;1.00;;;;;;5059459;28;20083;-88
2023/12/18 05:59:29;;;;;;;4.47;1.58;;;8.40;1.00;;;;;;5059138;28;20407;-88
2023/12/18 06:01:55;;;;;;;0.45;0.20;;;8.50;99.90;;;;;;5076644;28;20043;-88
2023/12/18 06:04:21;;;;;;;0.90;0.80;;;8.40;1.00;;;;;;5059503;28;20076;-88
2023/12/18 06:06:47;;;;;;;1.35;1.08;;;8.40;1.00;;;;;;5059677;28;20033;-88
2023/12/18 06:09:14;;;;;;;1.40;0.82;;;8.50;1.00;;;;;;5059788;28;20053;-88
2023/12/18 06:11:39;;;;;;;8.23;1.75;;;8.40;1.00;;;;;;5060042;28;20045;-88
2023/12/18 06:14:05;;;;;;;0.22;0.22;;;8.40;1.00;;;;;;5060352;28;20091;-88
2023/12/18 06:16:31;;;;;;;6.88;1.90;;;8.50;1.00;;;;;;5060464;28;20066;-88
2023/12/18 06:18:59;;;;;;;0.63;0.50;;;8.50;1.00;;;;;;5076849;28;20391;-87
2023/12/18 06:21:24;;;;;;;1.30;0.85;;;8.50;1.00;;;;;;5042434;28;20407;-88
2023/12/18 06:23:50;;;;;;;1.95;1.85;;;8.50;1.00;;;;;;5060926;28;20033;-88
2023/12/18 06:26:16;;;;;;;1.33;1.23;;;8.50;1.00;;;;;;5073167;28;20510;-88
2023/12/18 06:28:41;;;;;;;5.45;2.00;;;8.50;1.00;;;;;;5062017;28;20042;-88
2023/12/18 06:31:07;;;;;;;1.10;1.02;;;9.60;1.00;;;;;;5079264;28;20052;-88
2023/12/18 06:33:32;;;;;;;1.27;1.17;;;8.40;1.00;;;;;;5078539;28;20032;-88
2023/12/18 06:35:58;;;;;;;0.13;0.13;;;8.80;1.00;;;;;;5060200;28;20087;-88
2023/12/18 06:38:24;;;;;;;1.88;0.82;;;8.50;1.00;;;;;;5078645;28;20367;-88
2023/12/18 06:40:49;;;;;;;1.52;1.20;;;8.50;1.00;;;;;;5060885;28;20096;-88
2023/12/18 06:43:16;;;;;;;1.65;1.02;;;8.40;1.00;;;;;;5078903;28;20041;-88
2023/12/18 06:45:42;;;;;;;0.52;0.52;;;8.40;1.00;;;;;;5060978;28;20045;-88
2023/12/18 06:48:07;;;;;;;0.22;0.20;;;8.40;1.00;;;;;;5079005;28;20044;-88
2023/12/18 06:50:33;;;;;;;4.88;1.23;;;8.30;99.90;;;;;;5078846;28;20094;-88
2023/12/18 06:53:00;;;;;;;0.50;0.50;;;8.40;82.00;;;;;;5078354;28;20044;-88
2023/12/18 06:55:26;;;;;;;0.10;0.10;;;8.30;99.90;;;;;;5070733;28;20028;-88
2023/12/18 06:57:51;;;;;;;1.13;1.02;;;8.40;92.10;;;;;;5041833;28;20064;-88
2023/12/18 07:00:18;;;;;;;0.43;0.43;;;8.40;99.90;;;;;;5057595;28;20037;-88
2023/12/18 07:02:43;;;;;;;1.13;0.52;;;8.40;30.70;;;;;;5059228;28;20059;-88
2023/12/18 07:05:09;;;;;;;1.98;1.40;;;8.40;99.10;;;;;;5041156;28;20128;-88
2023/12/18 07:07:34;;;;;;;0.43;0.43;;;9.60;99.90;;;;;;5041430;28;20405;-88
2023/12/18 07:10:00;;;;;;;0.17;0.17;;;8.40;99.40;;;;;;5040993;28;20474;-88
2023/12/18 07:12:26;;;;;;;1.63;1.50;;;8.40;42.30;;;;;;5041153;28;20052;-88
2023/12/18 07:14:52;;;;;;;1.20;0.47;;;8.40;98.30;;;;;;5060184;28;20060;-88
2023/12/18 07:17:17;;;;;;;0.82;0.73;;;8.30;99.90;;;;;;5074572;28;20057;-88
2023/12/18 07:19:43;;;;;;;0.73;0.73;;;8.40;99.90;;;;;;5062854;28;20094;-88
2023/12/18 07:22:09;;;;;;;0.40;0.40;;;8.40;36.80;;;;;;5052290;28;20048;-88
2023/12/18 07:24:34;;;;;;;3.20;1.10;;;8.40;98.20;;;;;;5052721;28;20379;-88
2023/12/18 07:27:00;;;;;;;0.75;0.47;;;8.40;40.60;;;;;;5052742;28;20087;-88
2023/12/18 07:29:25;;;;;;;0.93;0.68;;;8.50;1.00;;;;;;5052437;28;20449;-88
2023/12/18 07:31:51;;;;;;;1.30;0.88;;;8.50;99.90;;;;;;5052316;28;20502;-88
2023/12/18 07:34:17;;;;;;;9.80;3.60;;;8.40;1.00;;;;;;5052269;28;20525;-88
2023/12/18 07:36:42;;;;;;;1.27;1.10;;;8.50;1.00;;;;;;5033311;28;20491;-88
2023/12/18 07:39:08;;;;;;;5.00;1.98;;;8.40;1.00;;;;;;5051090;28;20406;-87
2023/12/18 07:41:34;;;;;;;6.15;3.92;;;8.40;5.70;;;;;;5051413;28;20041;-88
2023/12/18 07:44:00;;;;;;;1.08;1.00;;;8.50;1.00;;;;;;5053059;28;20410;-88
2023/12/18 07:46:26;;;;;;;0.17;0.17;;;8.40;1.00;;;;;;5064368;28;20041;-88
2023/12/18 07:48:53;;;;;;;1.33;0.68;;;8.40;1.00;;;;;;5057763;28;20408;-87
2023/12/18 07:51:19;;;;;;;4.70;1.90;;;8.40;1.00;;;;;;5053375;28;20094;-87
2023/12/18 07:53:44;;;;;;;0.70;0.70;;;8.40;1.00;;;;;;5054173;28;20033;-87
2023/12/18 07:56:10;;;;;;;2.25;1.05;;;8.40;1.00;;;;;;5055086;28;20041;-87
2023/12/18 07:58:36;;;;;;;0.30;0.30;;;8.50;1.00;;;;;;5058289;28;20123;-87
2023/12/18 08:01:03;;;;;;;1.70;1.60;;;8.50;1.00;;;;;;5061200;28;20112;-87
2023/12/18 08:03:29;;;;;;;1.50;1.40;;;8.50;1.00;;;;;;5066015;28;20055;-87
2023/12/18 08:05:55;;;;;;;0.95;0.75;;;8.50;1.00;;;;;;5049244;28;20430;-87
2023/12/18 08:08:20;;;;;;;1.88;1.10;;;8.40;1.00;;;;;;5035438;28;20049;-87
2023/12/18 08:10:46;;;;;;;1.15;1.05;;;8.50;1.00;;;;;;5050356;28;20182;-87
2023/12/18 08:13:12;;;;;;;6.03;1.27;;;8.50;15.40;;;;;;5040907;28;20152;-87
2023/12/18 08:15:37;;;;;;;4.28;1.08;;;8.40;52.20;;;;;;5053572;28;20098;-87
2023/12/18 08:18:03;;;;;;;0.40;0.40;;;8.50;65.50;;;;;;5053359;28;20071;-86
2023/12/18 08:20:28;;;;;;;1.25;1.02;;;8.50;4.90;;;;;;5034697;28;20045;-87
2023/12/18 08:22:54;;;;;;;9.85;2.42;;;8.50;1.00;;;;;;5053138;28;20452;-87
2023/12/18 08:25:21;;;;;;;1.88;1.52;;;8.50;1.00;;;;;;5053194;28;20045;-87
2023/12/18 08:27:46;;;;;;;1.73;1.33;;;9.10;33.40;;;;;;5052923;28;20064;-87
2023/12/18 08:30:12;;;;;;;3.00;2.42;;;8.50;1.00;;;;;;5053342;28;20072;-87
2023/12/18 08:32:38;;;;;;;1.33;1.17;;;8.50;31.60;;;;;;5053483;28;20160;-87
2023/12/18 08:35:05;;;;;;;3.30;1.05;;;8.50;1.00;;;;;;5053172;28;20123;-87
2023/12/18 08:37:31;;;;;;;0.55;0.55;;;8.50;31.10;;;;;;5053199;28;20045;-87
2023/12/18 08:39:57;;;;;;;1.85;1.70;;;8.60;1.00;;;;;;5052920;28;20079;-87
2023/12/18 08:42:22;;;;;;;3.30;1.05;;;8.60;1.00;;;;;;5034853;28;20037;-87
2023/12/18 08:44:48;;;;;;;0.17;0.17;;;8.60;36.40;;;;;;5034839;28;20049;-87
2023/12/18 08:47:13;;;;;;;1.98;1.70;;;8.60;1.00;;;;;;5052714;28;20069;-87
2023/12/18 08:49:39;;;;;;;2.13;0.95;;;8.60;1.00;;;;;;5052783;28;20041;-87
2023/12/18 08:52:05;;;;;;;3.28;1.80;;;8.60;1.00;;;;;;5052504;28;20037;-87
2023/12/18 08:54:31;;;;;;;1.65;1.42;;;8.60;1.00;;;;;;5051814;28;20124;-87
2023/12/18 08:56:56;;;;;;;2.05;1.25;;;8.60;1.00;;;;;;5053115;28;20086;-87
2023/12/18 08:59:22;;;;;;;4.18;1.55;;;8.50;99.90;;;;;;5052786;28;20098;-87
2023/12/18 09:01:47;;;;;;;1.75;1.60;;;8.60;99.90;;;;;;5052701;28;20410;-87
2023/12/18 09:04:13;;;;;;;0.47;0.43;;;8.50;99.90;;;;;;5052775;28;20087;-88
2023/12/18 09:06:39;;;;;;;2.13;0.77;;;8.50;99.90;;;;;;5052588;28;20484;-87
2023/12/18 09:09:05;;;;;;;0.45;0.45;;;8.50;99.90;;;;;;5052329;28;20498;-87
2023/12/18 09:11:33;;;;;;;1.50;1.33;;;8.50;99.90;;;;;;5052781;28;20060;-87
2023/12/18 09:14:00;;;;;;;1.23;1.13;;;8.50;99.90;;;;;;5034563;28;20057;-87
2023/12/18 09:16:26;;;;;;;1.60;1.27;;;8.50;99.90;;;;;;5035071;28;20483;-87
2023/12/18 09:18:52;;;;;;;2.40;1.50;;;8.50;99.90;;;;;;5052063;28;20056;-87
2023/12/18 09:21:17;;;;;;;3.30;1.55;;;8.50;99.90;;;;;;5034020;28;20037;-87
2023/12/18 09:23:44;;;;;;;4.10;1.88;;;8.50;99.90;;;;;;5052737;28;20398;-87
2023/12/18 09:26:12;;;;;;;3.05;1.58;;;9.70;99.90;;;;;;5052861;28;20060;-88
2023/12/18 09:28:38;;;;;;;0.98;0.82;;;8.50;99.90;;;;;;5053180;28;20037;-88
2023/12/18 09:31:09;;;;;;;2.63;1.45;;;8.50;99.90;;;;;;5045258;28;20048;-88
2023/12/18 09:33:58;;;;;;;5.03;2.55;;;8.50;99.90;;;;;;5040059;28;20040;-87
2023/12/18 09:36:26;;;;;;;1.30;1.13;;;8.50;99.90;;;;;;5038734;28;20443;-88
2023/12/18 09:38:52;;;;;;;1.50;1.40;;;8.50;99.90;;;;;;5051765;28;20083;-88
2023/12/18 09:41:24;;;;;;;2.15;1.88;;;8.50;99.90;;;;;;5033347;28;20041;-88
2023/12/18 09:43:51;;;;;;;3.05;2.08;;;8.50;99.90;;;;;;5051233;28;20077;-88
2023/12/18 09:46:25;;;;;;;1.70;1.27;;;8.70;99.90;;;;;;5047858;28;20049;-88
2023/12/18 09:48:52;;;;;;;1.60;1.48;;;8.50;99.90;;;;;;5051597;28;20062;-88
2023/12/18 09:51:25;;;;;;;1.90;1.13;;;8.60;99.90;;;;;;5030611;28;20056;-88
2023/12/18 09:53:52;;;;;;;1.38;1.17;;;8.60;99.90;;;;;;5043836;28;20091;-88
2023/12/18 09:56:20;;;;;;;1.25;1.15;;;8.60;99.90;;;;;;5048989;28;20114;-88
2023/12/18 09:58:46;;;;;;;1.27;0.90;;;8.50;99.90;;;;;;5049323;28;20072;-88
2023/12/18 10:01:13;;;;;;;1.05;0.98;;;8.60;99.90;;;;;;5031356;28;20138;-88
2023/12/18 10:03:38;;;;;;;1.33;1.23;;;8.70;99.90;;;;;;5050174;28;20060;-88
2023/12/18 10:06:05;;;;;;;11.80;3.03;;;8.60;99.90;;;;;;5049490;28;20402;-88
2023/12/18 10:08:30;;;;;;;1.88;1.73;;;8.70;99.90;;;;;;5050192;28;20411;-88
2023/12/18 10:10:56;;;;;;;2.28;1.40;;;8.70;99.90;;;;;;5042681;28;20045;-88
2023/12/18 10:13:22;;;;;;;1.27;0.80;;;8.80;99.90;;;;;;5050335;28;20041;-88
2023/12/18 10:15:48;;;;;;;1.83;1.10;;;8.80;99.90;;;;;;5047884;28;20040;-88
2023/12/18 10:18:18;;;;;;;1.33;1.23;;;8.80;99.90;;;;;;5040197;28;20211;-88
2023/12/18 10:20:48;;;;;;;0.63;0.63;;;8.90;99.90;;;;;;5050560;28;20289;-88
2023/12/18 10:23:14;;;;;;;1.30;1.20;;;8.90;99.90;;;;;;5050973;28;20057;-88
2023/12/18 10:25:40;;;;;;;1.15;0.95;;;9.00;99.90;;;;;;5051041;28;20052;-88
2023/12/18 10:28:06;;;;;;;1.13;1.02;;;8.90;52.80;;;;;;5032816;28;20044;-87
2023/12/18 10:30:34;;;;;;;0.93;0.90;;;9.00;1.00;;;;;;5049900;28;20029;-88
2023/12/18 10:33:05;;;;;;;3.83;1.42;;;8.90;99.90;;;;;;5050299;28;20067;-88
2023/12/18 10:35:32;;;;;;;2.70;1.63;;;9.00;1.00;;;;;;5050160;28;20040;-88
2023/12/18 10:38:00;;;;;;;5.75;2.97;;;9.00;28.70;;;;;;5050103;28;20398;-87
2023/12/18 10:40:27;;;;;;;11.27;2.55;;;9.10;39.90;;;;;;5050805;28;20072;-88
2023/12/18 10:43:01;;;;;;;3.55;2.15;;;9.20;1.00;;;;;;5050899;28;20045;-87
2023/12/18 10:45:27;;;;;;;1.50;1.23;;;9.20;1.00;;;;;;5050945;28;20040;-88
2023/12/18 10:47:55;;;;;;;6.20;2.75;;;9.30;1.00;;;;;;5050354;28;20053;-88
2023/12/18 10:50:23;;;;;;;2.13;1.33;;;9.40;99.90;;;;;;5031562;28;20376;-88
2023/12/18 10:52:51;;;;;;;1.80;1.70;;;9.40;99.90;;;;;;5035628;28;20633;-88
2023/12/18 10:55:18;;;;;;;3.08;2.25;;;10.10;99.90;;;;;;5066504;28;20041;-87
2023/12/18 10:57:44;;;;;;;5.05;2.83;;;9.50;99.90;;;;;;5056724;28;20115;-88
2023/12/18 11:00:14;;;;;;;8.30;2.47;;;9.50;99.90;;;;;;5048118;28;20441;-88
2023/12/18 11:02:41;;;;;;;2.47;1.75;;;9.50;99.90;;;;;;5031658;28;20128;-88
2023/12/18 11:05:08;;;;;;;2.60;2.40;;;9.50;99.90;;;;;;5049797;28;20041;-88
2023/12/18 11:07:34;;;;;;;1.42;1.33;;;9.50;99.90;;;;;;5049282;28;20055;-88
2023/12/18 11:10:00;;;;;;;1.95;1.38;;;9.50;99.90;;;;;;5025923;28;20091;-88
2023/12/18 11:12:27;;;;;;;2.35;2.15;;;9.50;99.90;;;;;;5028739;28;20045;-88
2023/12/18 11:15:11;;;;;;;4.18;2.22;;;9.40;99.90;;;;;;5045819;28;20428;-88
2023/12/18 11:18:04;;;;;;;1.15;0.85;;;9.40;99.90;;;;;;5041774;28;20086;-87
2023/12/18 11:20:40;;;;;;;5.35;3.15;;;9.40;99.90;;;;;;5046173;28;20052;-88
2023/12/18 11:23:06;;;;;;;0.90;0.90;;;9.40;99.90;;;;;;5053482;28;20051;-88
2023/12/18 11:25:35;;;;;;;3.50;1.17;;;10.10;99.90;;;;;;5036418;28;20124;-88
2023/12/18 11:28:05;;;;;;;1.05;0.95;;;9.40;99.90;;;;;;5011594;28;20129;-88
2023/12/18 11:30:33;;;;;;;2.28;1.42;;;9.50;99.90;;;;;;5047929;28;20049;-87
2023/12/18 11:33:07;;;;;;;1.65;1.55;;;9.40;99.90;;;;;;5034988;28;20037;-88
2023/12/18 11:35:34;;;;;;;3.35;1.70;;;9.40;99.90;;;;;;5039990;28;20079;-87
2023/12/18 11:38:06;;;;;;;5.65;2.67;;;9.40;99.90;;;;;;5052296;28;20045;-87
2023/12/18 11:40:32;;;;;;;3.25;1.95;;;9.40;99.90;;;;;;5036813;28;20514;-88
2023/12/18 11:43:01;;;;;;;7.07;2.40;;;9.40;99.90;;;;;;5037959;28;20045;-88
2023/12/18 11:45:27;;;;;;;2.28;1.55;;;9.40;99.90;;;;;;5055167;28;20041;-87
2023/12/18 11:47:53;;;;;;;8.23;2.17;;;9.40;99.90;;;;;;5054049;28;20095;-88
2023/12/18 11:50:25;;;;;;;0.95;0.85;;;9.40;99.90;;;;;;5036914;28;20490;-88
2023/12/18 11:52:55;;;;;;;1.17;1.08;;;9.40;99.90;;;;;;5055591;28;20044;-87
2023/12/18 11:55:42;;;;;;;2.35;1.42;;;9.40;99.90;;;;;;5037667;28;20049;-87
2023/12/18 11:58:08;;;;;;;1.33;1.02;;;9.50;99.90;;;;;;5037385;28;20064;-87
2023/12/18 12:00:35;;;;;;;2.22;1.63;;;9.40;99.90;;;;;;5054682;28;20037;-88
2023/12/18 12:03:02;;;;;;;1.42;1.33;;;9.40;99.90;;;;;;5054887;28;20045;-87
2023/12/18 12:05:29;;;;;;;2.13;1.75;;;9.40;99.90;;;;;;5037632;28;20041;-88
2023/12/18 12:07:55;;;;;;;3.35;2.95;;;9.40;99.90;;;;;;5055512;28;20040;-88
2023/12/18 12:10:21;;;;;;;3.20;0.90;;;9.30;99.90;;;;;;5037306;28;20477;-87
2023/12/18 12:12:57;;;;;;;1.58;1.45;;;9.40;99.90;;;;;;5037539;28;20049;-87
2023/12/18 12:15:27;;;;;;;10.75;2.28;;;10.30;99.90;;;;;;5055059;28;20076;-87
2023/12/18 12:18:04;;;;;;;3.60;1.25;;;9.30;99.90;;;;;;5038446;28;20041;-87
2023/12/18 12:20:30;;;;;;;2.15;2.03;;;9.40;99.90;;;;;;5054972;28;20487;-87
2023/12/18 12:22:55;;;;;;;7.78;1.63;;;9.40;99.90;;;;;;5054968;28;20051;-88
2023/12/18 12:25:21;;;;;;;2.70;1.23;;;9.40;99.90;;;;;;5055161;28;20037;-88
2023/12/18 12:27:47;;;;;;;2.22;2.03;;;9.40;99.90;;;;;;5054933;28;20045;-88
2023/12/18 12:30:13;;;;;;;1.83;1.50;;;9.40;99.90;;;;;;5053684;28;20040;-87
2023/12/18 12:32:39;;;;;;;0.40;0.40;;;9.40;99.90;;;;;;5037072;28;20041;-88
2023/12/18 12:35:07;;;;;;;10.77;2.03;;;9.40;99.90;;;;;;5054538;28;20037;-88
2023/12/18 12:37:33;;;;;;;1.20;1.10;;;9.40;99.90;;;;;;5054994;28;20056;-88
2023/12/18 12:40:05;;;;;;;0.38;0.35;;;9.40;99.90;;;;;;5036766;28;20041;-87
2023/12/18 12:42:32;;;;;;;4.80;1.35;;;9.40;99.90;;;;;;5054906;28;20051;-87
2023/12/18 12:44:58;;;;;;;2.95;0.68;;;9.40;99.90;;;;;;5036503;28;20529;-87
2023/12/18 12:47:27;;;;;;;10.07;2.72;;;9.40;99.90;;;;;;5054268;28;20063;-87
2023/12/18 12:49:53;;;;;;;4.05;2.50;;;9.40;99.90;;;;;;5054385;28;20088;-87
2023/12/18 12:52:19;;;;;;;6.70;2.30;;;9.40;99.90;;;;;;5054098;28;20447;-87
2023/12/18 12:54:48;;;;;;;1.40;1.15;;;9.40;99.90;;;;;;5056746;28;20123;-87
2023/12/18 12:57:14;;;;;;;6.38;2.47;;;9.50;99.90;;;;;;5060906;28;20037;-88